C2302 KFMH-KFMH
Flight info
| Callsign | C2302 |
|---|---|
| Flight time | N/A |
| Altitude | 12000 |
| Route | VFR NE |
| Aircraft | CN35/M-SDE3FGHIRWY/L |
Departure
| Time | 2026-04-21 01:42 |
|---|---|
| Airport | Cape Cod Coast Guard Air Station (KFMH) |
Arrival
| Time | N/A |
|---|---|
| Airport | Cape Cod Coast Guard Air Station (KFMH) |
| Time | Latitude | Longitude | Altitude | Speed | Heading |
|---|---|---|---|---|---|
| 2026-04-21 01:30 | 41.66412 | -70.51967 | 128 ft | 0 kts | 128° |
| 2026-04-21 01:33 | 41.66410 | -70.51950 | 129 ft | 0 kts | 88° |
| 2026-04-21 01:34 | 41.66410 | -70.51947 | 129 ft | 2 kts | 88° |
| 2026-04-21 01:34 | 41.66398 | -70.51932 | 126 ft | 3 kts | 173° |
| 2026-04-21 01:35 | 41.66383 | -70.51950 | 128 ft | 5 kts | 258° |
| 2026-04-21 01:35 | 41.66405 | -70.51981 | 126 ft | 7 kts | 356° |
| 2026-04-21 01:35 | 41.66414 | -70.51982 | 128 ft | 0 kts | 355° |
| 2026-04-21 01:36 | 41.66422 | -70.51983 | 127 ft | 4 kts | 353° |
| 2026-04-21 01:36 | 41.66447 | -70.51955 | 131 ft | 7 kts | 69° |
| 2026-04-21 01:37 | 41.66465 | -70.51851 | 131 ft | 15 kts | 79° |
| 2026-04-21 01:37 | 41.66488 | -70.51677 | 133 ft | 22 kts | 89° |
| 2026-04-21 01:37 | 41.66488 | -70.51563 | 133 ft | 0 kts | 91° |
| 2026-04-21 01:37 | 41.66487 | -70.51529 | 133 ft | 8 kts | 91° |
| 2026-04-21 01:38 | 41.66468 | -70.51377 | 133 ft | 22 kts | 141° |
| 2026-04-21 01:38 | 41.66344 | -70.51216 | 133 ft | 24 kts | 134° |
| 2026-04-21 01:38 | 41.66264 | -70.51189 | 132 ft | 14 kts | 220° |
| 2026-04-21 01:38 | 41.66166 | -70.51295 | 129 ft | 22 kts | 218° |
| 2026-04-21 01:39 | 41.66023 | -70.51444 | 127 ft | 30 kts | 218° |
| 2026-04-21 01:39 | 41.65846 | -70.51635 | 123 ft | 36 kts | 220° |
| 2026-04-21 01:39 | 41.65642 | -70.51858 | 123 ft | 40 kts | 218° |
| 2026-04-21 01:39 | 41.65413 | -70.52102 | 121 ft | 43 kts | 219° |
| 2026-04-21 01:40 | 41.65177 | -70.52362 | 120 ft | 46 kts | 218° |
| 2026-04-21 01:40 | 41.64922 | -70.52628 | 117 ft | 37 kts | 218° |
| 2026-04-21 01:40 | 41.64838 | -70.52766 | 118 ft | 13 kts | 294° |
| 2026-04-21 01:40 | 41.64945 | -70.52883 | 116 ft | 32 kts | 323° |
| 2026-04-21 01:41 | 41.65093 | -70.52920 | 114 ft | 17 kts | 41° |
| 2026-04-21 01:41 | 41.65342 | -70.52649 | 116 ft | 85 kts | 39° |
| 2026-04-21 01:41 | 41.65961 | -70.51986 | 147 ft | 136 kts | 39° |
| 2026-04-21 01:41 | 41.66721 | -70.51183 | 679 ft | 146 kts | 36° |
| 2026-04-21 01:42 | 41.67565 | -70.50289 | 1282 ft | 152 kts | 34° |
| 2026-04-21 01:42 | 41.68468 | -70.49401 | 1959 ft | 174 kts | 32° |
| 2026-04-21 01:42 | 41.69684 | -70.48705 | 2170 ft | 209 kts | 7° |
| 2026-04-21 01:42 | 41.71212 | -70.48532 | 2455 ft | 231 kts | 1° |
| 2026-04-21 01:43 | 41.72811 | -70.48275 | 3102 ft | 226 kts | 13° |
| 2026-04-21 01:43 | 41.74179 | -70.47394 | 4130 ft | 210 kts | 32° |
| 2026-04-21 01:43 | 41.75374 | -70.46356 | 5171 ft | 199 kts | 29° |
| 2026-04-21 01:43 | 41.76626 | -70.45630 | 5997 ft | 202 kts | 17° |
| 2026-04-21 01:44 | 41.78006 | -70.45055 | 6543 ft | 213 kts | 15° |
| 2026-04-21 01:44 | 41.79447 | -70.44410 | 7061 ft | 222 kts | 18° |
| 2026-04-21 01:44 | 41.80838 | -70.43708 | 7561 ft | 229 kts | 17° |
| 2026-04-21 01:44 | 41.82352 | -70.42961 | 8078 ft | 235 kts | 19° |
| 2026-04-21 01:45 | 41.83891 | -70.42132 | 8607 ft | 241 kts | 21° |
| 2026-04-21 01:45 | 41.85442 | -70.41223 | 9150 ft | 246 kts | 22° |
| 2026-04-21 01:45 | 41.87010 | -70.40271 | 9699 ft | 249 kts | 22° |
| 2026-04-21 01:45 | 41.88614 | -70.39346 | 10250 ft | 252 kts | 19° |
| 2026-04-21 01:46 | 41.90254 | -70.38511 | 10758 ft | 253 kts | 17° |
| 2026-04-21 01:46 | 41.91919 | -70.37737 | 11245 ft | 255 kts | 15° |
| 2026-04-21 01:46 | 41.93665 | -70.36970 | 11273 ft | 273 kts | 16° |
| 2026-04-21 01:46 | 41.95521 | -70.36172 | 11286 ft | 286 kts | 16° |
| 2026-04-21 01:47 | 41.97444 | -70.35331 | 11286 ft | 294 kts | 16° |
| 2026-04-21 01:47 | 41.99403 | -70.34446 | 11279 ft | 299 kts | 17° |
| 2026-04-21 01:47 | 42.01381 | -70.33522 | 11286 ft | 303 kts | 18° |
| 2026-04-21 01:47 | 42.03376 | -70.32570 | 11295 ft | 305 kts | 18° |
| 2026-04-21 01:48 | 42.05378 | -70.31605 | 11291 ft | 306 kts | 18° |
| 2026-04-21 01:48 | 42.07291 | -70.30340 | 11274 ft | 308 kts | 35° |
| 2026-04-21 01:48 | 42.08744 | -70.28232 | 11276 ft | 309 kts | 57° |
| 2026-04-21 01:48 | 42.09778 | -70.25696 | 11275 ft | 309 kts | 64° |
| 2026-04-21 01:49 | 42.10754 | -70.23147 | 11280 ft | 303 kts | 60° |
| 2026-04-21 01:49 | 42.12174 | -70.21219 | 11266 ft | 288 kts | 26° |
| 2026-04-21 01:49 | 42.14106 | -70.20659 | 11281 ft | 288 kts | 357° |
| 2026-04-21 01:49 | 42.16112 | -70.20853 | 11285 ft | 286 kts | 352° |
| 2026-04-21 01:50 | 42.17923 | -70.20798 | 11260 ft | 251 kts | 13° |
| 2026-04-21 01:50 | 42.19522 | -70.19684 | 11271 ft | 267 kts | 34° |
| 2026-04-21 01:50 | 42.20995 | -70.18063 | 11120 ft | 281 kts | 40° |
| 2026-04-21 01:50 | 42.22496 | -70.16280 | 10870 ft | 293 kts | 40° |
| 2026-04-21 01:51 | 42.24071 | -70.14423 | 10254 ft | 314 kts | 40° |
| 2026-04-21 01:51 | 42.25773 | -70.12432 | 9437 ft | 331 kts | 40° |
| 2026-04-21 01:51 | 42.27547 | -70.10397 | 8633 ft | 338 kts | 39° |
| 2026-04-21 01:51 | 42.29358 | -70.08360 | 7835 ft | 340 kts | 38° |
| 2026-04-21 01:52 | 42.31187 | -70.06325 | 7066 ft | 339 kts | 38° |
| 2026-04-21 01:52 | 42.34794 | -70.02320 | 5489 ft | 331 kts | 38° |
| 2026-04-21 01:52 | 42.36554 | -70.00354 | 4685 ft | 325 kts | 38° |
| 2026-04-21 01:53 | 42.37700 | -69.99067 | 4312 ft | 319 kts | 38° |
| 2026-04-21 01:53 | 42.39346 | -69.97204 | 4288 ft | 300 kts | 39° |
| 2026-04-21 01:53 | 42.40916 | -69.95413 | 4285 ft | 291 kts | 39° |
| 2026-04-21 01:53 | 42.42441 | -69.93655 | 4283 ft | 286 kts | 39° |
| 2026-04-21 01:54 | 42.43939 | -69.91910 | 4283 ft | 283 kts | 39° |
| 2026-04-21 01:54 | 42.45421 | -69.90177 | 4283 ft | 280 kts | 39° |
| 2026-04-21 01:54 | 42.46895 | -69.88454 | 4282 ft | 280 kts | 39° |
| 2026-04-21 01:54 | 42.48372 | -69.86730 | 4283 ft | 280 kts | 39° |
| 2026-04-21 01:55 | 42.49847 | -69.85008 | 4281 ft | 281 kts | 39° |
| 2026-04-21 01:55 | 42.51328 | -69.83279 | 4282 ft | 281 kts | 39° |
| 2026-04-21 01:55 | 42.52811 | -69.81550 | 4283 ft | 281 kts | 39° |
| 2026-04-21 01:55 | 42.54294 | -69.79823 | 4283 ft | 281 kts | 39° |
| 2026-04-21 01:56 | 42.55776 | -69.78100 | 4285 ft | 281 kts | 39° |
| 2026-04-21 01:56 | 42.57260 | -69.76374 | 4287 ft | 281 kts | 39° |
| 2026-04-21 01:56 | 42.58744 | -69.74647 | 4288 ft | 281 kts | 39° |
| 2026-04-21 01:56 | 42.60228 | -69.72918 | 4287 ft | 281 kts | 39° |
| 2026-04-21 01:57 | 42.61706 | -69.71196 | 4283 ft | 280 kts | 39° |
| 2026-04-21 01:57 | 42.63147 | -69.69514 | 4283 ft | 279 kts | 39° |
| 2026-04-21 01:57 | 42.64618 | -69.67796 | 4281 ft | 279 kts | 39° |
| 2026-04-21 01:57 | 42.66050 | -69.66122 | 4283 ft | 279 kts | 39° |
| 2026-04-21 01:58 | 42.67535 | -69.64383 | 4285 ft | 279 kts | 40° |
| 2026-04-21 01:58 | 42.69009 | -69.62657 | 4287 ft | 279 kts | 39° |
| 2026-04-21 01:58 | 42.70477 | -69.60934 | 4286 ft | 279 kts | 39° |
| 2026-04-21 01:58 | 42.71950 | -69.59204 | 4286 ft | 279 kts | 39° |
| 2026-04-21 01:59 | 42.73417 | -69.57480 | 4285 ft | 279 kts | 40° |
| 2026-04-21 01:59 | 42.74891 | -69.55752 | 4286 ft | 279 kts | 39° |
| 2026-04-21 01:59 | 42.76357 | -69.54030 | 4288 ft | 279 kts | 40° |
| 2026-04-21 01:59 | 42.77829 | -69.52300 | 4291 ft | 279 kts | 39° |
| 2026-04-21 02:00 | 42.79298 | -69.50570 | 4290 ft | 279 kts | 40° |
| 2026-04-21 02:00 | 42.80762 | -69.48839 | 4290 ft | 279 kts | 39° |
| 2026-04-21 02:00 | 42.82222 | -69.47109 | 4290 ft | 278 kts | 39° |
| 2026-04-21 02:00 | 42.83193 | -69.45963 | 4290 ft | 279 kts | 39° |